Cricklade, United Kingdom
Current Conditions -  °F | °C
As of 7:58 AM on Wednesday 26 Nov 2014 (Local Time) from EGVA Reporting Station
Overcast Overcast  
Wind Chill: 44°   Ceiling: 600
Heat Index: 44°   Visibility: 6mi
Dew Point: 44°   Wind: 2mph
Humidity: 99%   Direction: 10°N
Pressure: 29.88"   Gusts: NA
Location:  51.64°N, 1.86°W
Report Text: EGVA 260758Z AUTO 01002KT 9999 OVC006 07/07 A2988 RMK AO2 SLP124 T00680066 $
Loading
Personal Weather Stations






























Interactive Weather Map New forecast layout! Learn more

10-Day Weather Forecast

Advertisements
Track Severe Weather on mobile